createdAt,value
2023-05-07T00:02:10.201Z,96.29
2023-05-07T00:04:42.573Z,96.23
2023-05-07T00:07:12.336Z,96.47
2023-05-07T00:09:42.106Z,96.24
2023-05-07T00:12:12.000Z,96.47
2023-05-07T00:14:41.830Z,96.28
2023-05-07T00:17:11.635Z,96.51
2023-05-07T00:19:43.996Z,97.40
2023-05-07T00:22:13.744Z,98.26
2023-05-07T00:24:43.500Z,97.96
2023-05-07T00:27:13.796Z,98.00
2023-05-07T00:29:43.536Z,97.10
2023-05-07T00:32:13.444Z,97.06
2023-05-07T00:34:46.445Z,96.31
2023-05-07T00:37:16.181Z,96.42
2023-05-07T00:39:45.893Z,97.17
2023-05-07T00:42:16.198Z,98.20
2023-05-07T00:44:46.496Z,97.98
2023-05-07T00:47:17.433Z,98.24
2023-05-07T00:49:49.851Z,98.38
2023-05-07T00:52:21.100Z,98.32
2023-05-07T00:54:51.961Z,97.63
2023-05-07T00:57:22.330Z,97.97
2023-05-07T00:59:52.690Z,97.95
2023-05-07T01:02:22.441Z,97.83
2023-05-07T01:04:54.766Z,99.10
2023-05-07T01:07:26.276Z,98.65
2023-05-07T01:09:56.351Z,98.21
2023-05-07T01:12:26.489Z,98.38
2023-05-07T01:14:56.335Z,98.59
2023-05-07T01:17:26.588Z,99.11
2023-05-07T01:19:59.130Z,98.89
2023-05-07T01:22:37.755Z,98.39
2023-05-07T01:25:09.317Z,98.83
2023-05-07T01:27:42.826Z,99.29
2023-05-07T01:30:14.183Z,100.00
2023-05-07T01:32:49.872Z,100.00
2023-05-07T01:35:23.629Z,100.00
2023-05-07T01:37:57.030Z,99.88
2023-05-07T01:40:28.065Z,99.53
2023-05-07T01:42:58.667Z,99.66
2023-05-07T01:45:29.436Z,98.91
2023-05-07T01:47:59.457Z,98.45
2023-05-07T01:50:29.835Z,98.48
2023-05-07T01:53:02.314Z,98.73
2023-05-07T01:55:32.680Z,99.87
2023-05-07T01:58:02.672Z,98.74
2023-05-07T02:00:32.796Z,98.36
2023-05-07T02:03:02.925Z,98.52
2023-05-07T02:05:46.024Z,98.25
2023-05-07T02:08:25.931Z,98.04
2023-05-07T02:10:55.744Z,97.64
2023-05-07T02:13:26.144Z,97.44
2023-05-07T02:15:55.966Z,97.25
2023-05-07T02:18:27.838Z,96.54
2023-05-07T02:20:57.926Z,95.82
2023-05-07T02:23:30.406Z,96.48
2023-05-07T02:26:00.565Z,96.81
2023-05-07T02:28:30.453Z,96.73
2023-05-07T02:31:03.928Z,97.36
2023-05-07T02:33:34.367Z,97.81
2023-05-07T02:36:10.546Z,98.86
2023-05-07T02:38:48.905Z,99.43
2023-05-07T02:41:18.726Z,98.98
2023-05-07T02:43:48.523Z,98.81
2023-05-07T02:46:18.824Z,98.87
2023-05-07T02:48:53.145Z,98.29
2023-05-07T02:51:26.150Z,97.78
2023-05-07T02:54:02.060Z,97.32
2023-05-07T02:56:32.800Z,97.71
2023-05-07T02:59:02.555Z,98.15
2023-05-07T03:01:37.142Z,97.91
2023-05-07T03:04:09.570Z,97.67
2023-05-07T03:06:39.371Z,97.79
2023-05-07T03:09:12.172Z,97.46
2023-05-07T03:11:42.217Z,97.13
2023-05-07T03:14:11.987Z,97.02
2023-05-07T03:16:42.670Z,97.49
2023-05-07T03:19:12.426Z,97.94
2023-05-07T03:21:42.446Z,97.93
2023-05-07T03:24:14.798Z,97.94
2023-05-07T03:26:44.567Z,98.06
2023-05-07T03:29:14.449Z,97.03
2023-05-07T03:31:44.565Z,97.45
2023-05-07T03:34:14.419Z,97.49
2023-05-07T03:36:44.201Z,97.36
2023-05-07T03:39:18.437Z,97.94
2023-05-07T03:41:48.312Z,97.72
2023-05-07T03:44:18.102Z,97.08
2023-05-07T03:46:48.399Z,97.20
2023-05-07T03:49:18.284Z,96.54
2023-05-07T03:51:48.054Z,96.57
2023-05-07T03:54:20.498Z,95.67
2023-05-07T03:56:51.077Z,95.80
2023-05-07T03:59:20.909Z,96.07
2023-05-07T04:01:51.586Z,96.31
2023-05-07T04:04:23.898Z,95.22
2023-05-07T04:06:54.244Z,94.75
2023-05-07T04:09:27.821Z,95.24
2023-05-07T04:11:59.950Z,95.66
2023-05-07T04:14:29.810Z,95.19
2023-05-07T04:16:59.895Z,95.16
2023-05-07T04:19:30.317Z,94.95
2023-05-07T04:22:00.172Z,94.48
2023-05-07T04:24:35.766Z,94.16
2023-05-07T04:27:07.595Z,94.50
2023-05-07T04:29:37.574Z,94.73
2023-05-07T04:32:08.453Z,94.44
2023-05-07T04:34:38.574Z,94.45
2023-05-07T04:37:08.486Z,94.26
2023-05-07T04:39:41.055Z,94.24
2023-05-07T04:42:11.472Z,93.94
2023-05-07T04:44:41.357Z,93.51
2023-05-07T04:47:11.198Z,94.07
2023-05-07T04:49:42.318Z,93.48
2023-05-07T04:52:13.339Z,93.88
2023-05-07T04:54:46.166Z,94.01
2023-05-07T04:57:16.048Z,94.40
2023-05-07T04:59:46.108Z,93.66
2023-05-07T05:02:16.057Z,93.20
2023-05-07T05:04:46.172Z,94.27
2023-05-07T05:07:16.348Z,93.86
2023-05-07T05:09:48.872Z,93.44
2023-05-07T05:12:18.905Z,93.57
2023-05-07T05:14:48.830Z,93.11
2023-05-07T05:17:19.238Z,93.85
2023-05-07T05:19:49.764Z,94.67
2023-05-07T05:22:20.120Z,94.58
2023-05-07T05:24:52.555Z,94.11
2023-05-07T05:27:22.723Z,94.05
2023-05-07T05:29:52.734Z,93.84
2023-05-07T05:32:22.655Z,93.90
2023-05-07T05:34:54.368Z,94.13
2023-05-07T05:37:24.163Z,94.19
2023-05-07T05:39:57.432Z,94.74
2023-05-07T05:42:29.595Z,94.13
2023-05-07T05:44:59.434Z,93.70
2023-05-07T05:47:30.199Z,92.65
2023-05-07T05:50:00.106Z,93.25
2023-05-07T05:52:29.944Z,93.46
2023-05-07T05:55:02.775Z,93.99
2023-05-07T05:57:32.575Z,93.98
2023-05-07T06:00:02.406Z,94.40
2023-05-07T06:02:34.766Z,94.08
2023-05-07T06:05:04.917Z,93.31
2023-05-07T06:07:35.802Z,93.77
2023-05-07T06:10:09.758Z,94.48
2023-05-07T06:12:39.762Z,94.63
2023-05-07T06:15:10.790Z,95.49
2023-05-07T06:17:41.056Z,94.63
2023-05-07T06:20:14.634Z,94.28
2023-05-07T06:22:44.477Z,93.88
2023-05-07T06:25:18.493Z,92.82
2023-05-07T06:27:48.301Z,92.46
2023-05-07T06:30:18.370Z,92.27
2023-05-07T06:32:48.219Z,91.66
2023-05-07T06:35:18.438Z,92.56
2023-05-07T06:37:48.670Z,92.26
2023-05-07T06:40:26.167Z,92.23
2023-05-07T06:42:56.309Z,91.74
2023-05-07T06:45:33.337Z,91.56
2023-05-07T06:48:03.603Z,91.40
2023-05-07T06:50:37.440Z,90.89
2023-05-07T06:53:07.405Z,90.43
2023-05-07T06:55:39.782Z,89.70
2023-05-07T06:58:10.128Z,90.10
2023-05-07T07:00:41.920Z,89.92
2023-05-07T07:03:12.148Z,89.98
2023-05-07T07:05:43.922Z,90.03
2023-05-07T07:08:14.323Z,90.03
2023-05-07T07:10:46.700Z,89.53
2023-05-07T07:13:16.527Z,89.02
2023-05-07T07:15:47.208Z,89.17
2023-05-07T07:18:17.029Z,89.12
2023-05-07T07:20:47.847Z,89.12
2023-05-07T07:23:17.609Z,90.28
2023-05-07T07:25:50.307Z,90.17
2023-05-07T07:28:20.839Z,90.17
2023-05-07T07:30:50.852Z,89.81
2023-05-07T07:33:21.364Z,90.36
2023-05-07T07:35:51.209Z,89.68
2023-05-07T07:38:20.998Z,90.06
2023-05-07T07:40:54.186Z,89.42
2023-05-07T07:43:24.249Z,89.96
2023-05-07T07:45:54.339Z,89.69
2023-05-07T07:48:24.301Z,90.10
2023-05-07T07:50:54.445Z,89.85
2023-05-07T07:53:24.489Z,89.89
2023-05-07T07:55:59.324Z,89.67
2023-05-07T07:58:31.925Z,89.76
2023-05-07T08:01:02.256Z,89.54
2023-05-07T08:03:33.636Z,89.22
2023-05-07T08:06:05.048Z,89.49
2023-05-07T08:08:36.266Z,89.67
2023-05-07T08:11:08.735Z,89.29
2023-05-07T08:13:40.560Z,89.18
2023-05-07T08:16:10.744Z,89.08
2023-05-07T08:18:40.965Z,88.48
2023-05-07T08:21:10.888Z,88.28
2023-05-07T08:23:40.745Z,88.07
2023-05-07T08:26:14.110Z,88.04
2023-05-07T08:28:43.980Z,87.37
2023-05-07T08:31:13.879Z,87.44
2023-05-07T08:33:45.170Z,87.16
2023-05-07T08:36:14.971Z,87.26
2023-05-07T08:38:46.880Z,86.51
2023-05-07T08:41:19.852Z,86.81
2023-05-07T08:43:52.138Z,86.52
2023-05-07T08:46:24.732Z,86.17
2023-05-07T08:48:58.184Z,85.78
2023-05-07T08:51:28.258Z,84.31
2023-05-07T08:53:58.256Z,83.45
2023-05-07T08:56:35.716Z,84.29
2023-05-07T08:59:05.532Z,83.44
2023-05-07T09:01:36.923Z,82.86
2023-05-07T09:04:08.277Z,82.69
2023-05-07T09:06:39.218Z,82.52
2023-05-07T09:09:09.329Z,82.83
2023-05-07T09:11:42.045Z,82.56
2023-05-07T09:14:12.139Z,82.13
2023-05-07T09:16:45.276Z,81.77
2023-05-07T09:19:15.246Z,81.85
2023-05-07T09:21:48.763Z,81.80
2023-05-07T09:24:20.020Z,81.69
2023-05-07T09:26:52.460Z,81.02
2023-05-07T09:29:22.639Z,81.12
2023-05-07T09:31:52.485Z,80.48
2023-05-07T09:34:22.456Z,80.16
2023-05-07T09:36:52.714Z,79.76
2023-05-07T09:39:23.242Z,79.03
2023-05-07T09:41:55.959Z,77.99
2023-05-07T09:44:35.815Z,78.08
2023-05-07T09:47:09.497Z,77.44
2023-05-07T09:49:50.191Z,77.19
2023-05-07T09:52:24.496Z,76.98
2023-05-07T09:55:00.349Z,76.16
2023-05-07T09:57:35.303Z,75.43
2023-05-07T10:00:10.732Z,75.21
2023-05-07T10:02:53.782Z,74.89
2023-05-07T10:05:34.487Z,74.37
2023-05-07T10:08:05.737Z,75.59
2023-05-07T10:10:39.189Z,74.77
2023-05-07T10:13:15.734Z,74.29
2023-05-07T10:15:51.508Z,75.04
2023-05-07T10:18:24.890Z,74.84
2023-05-07T10:20:57.569Z,73.47
2023-05-07T10:23:28.325Z,73.61
2023-05-07T10:26:03.505Z,73.16
2023-05-07T10:28:42.438Z,73.86
2023-05-07T10:31:35.420Z,72.52
2023-05-07T10:34:11.734Z,72.01
2023-05-07T10:36:43.498Z,71.72
2023-05-07T10:39:14.006Z,72.34
2023-05-07T10:41:44.310Z,72.45
2023-05-07T10:44:29.147Z,71.02
2023-05-07T10:47:10.720Z,70.77
2023-05-07T10:50:27.217Z,71.54
2023-05-07T10:53:25.457Z,71.44
2023-05-07T10:56:32.661Z,71.29
2023-05-07T10:59:35.169Z,70.22
2023-05-07T11:02:15.533Z,71.60
2023-05-07T11:05:26.264Z,71.50
2023-05-07T11:08:08.621Z,71.37
2023-05-07T11:10:55.069Z,71.08
2023-05-07T11:13:48.586Z,71.41
2023-05-07T11:16:29.109Z,71.87
2023-05-07T11:19:57.661Z,70.10
2023-05-07T11:22:44.702Z,69.98
2023-05-07T11:25:29.551Z,69.59
2023-05-07T11:28:11.541Z,69.45
2023-05-07T11:30:47.621Z,70.30
2023-05-07T11:33:21.343Z,71.58
2023-05-07T11:35:54.518Z,70.27
2023-05-07T11:38:29.966Z,71.34
2023-05-07T11:41:01.833Z,71.28
2023-05-07T11:43:32.025Z,71.39
2023-05-07T11:46:11.145Z,71.05
2023-05-07T11:48:42.647Z,69.89
2023-05-07T11:51:13.294Z,69.77
2023-05-07T11:53:46.629Z,70.04
2023-05-07T11:56:17.870Z,70.23
2023-05-07T11:58:49.898Z,69.85
2023-05-07T12:01:20.482Z,69.22
2023-05-07T12:03:50.349Z,69.01
2023-05-07T12:06:20.888Z,68.87
2023-05-07T12:08:53.324Z,67.67
2023-05-07T12:11:27.434Z,67.26
2023-05-07T12:13:59.877Z,67.95
2023-05-07T12:16:30.401Z,67.67
2023-05-07T12:19:00.779Z,68.70
2023-05-07T12:21:30.831Z,67.84
2023-05-07T12:24:03.275Z,67.13
2023-05-07T12:26:33.030Z,67.50
2023-05-07T12:29:02.820Z,68.31
2023-05-07T12:31:32.668Z,68.32
2023-05-07T12:34:02.435Z,69.33
2023-05-07T12:36:40.701Z,68.87
2023-05-07T12:39:13.441Z,69.30
2023-05-07T12:41:59.704Z,69.93
2023-05-07T12:44:33.932Z,70.76
2023-05-07T12:47:06.069Z,71.61
2023-05-07T12:49:39.881Z,70.48
2023-05-07T12:52:10.055Z,71.00
2023-05-07T12:54:42.526Z,70.42
2023-05-07T12:57:13.631Z,69.39
2023-05-07T12:59:44.655Z,66.75
2023-05-07T13:02:14.471Z,68.65
2023-05-07T13:04:45.167Z,69.25
2023-05-07T13:07:14.897Z,68.56
2023-05-07T13:09:49.139Z,68.71
2023-05-07T13:12:18.887Z,69.87
2023-05-07T13:14:48.652Z,69.27
2023-05-07T13:17:19.871Z,69.58
2023-05-07T13:19:49.770Z,69.38
2023-05-07T13:22:19.497Z,69.59
2023-05-07T13:24:51.807Z,66.31
2023-05-07T13:27:21.860Z,67.70
2023-05-07T13:29:51.628Z,67.12
2023-05-07T13:32:21.441Z,67.05
2023-05-07T13:34:51.597Z,67.07
2023-05-07T13:37:21.406Z,66.87
2023-05-07T13:39:53.781Z,67.32
2023-05-07T13:42:23.498Z,69.03
2023-05-07T13:44:53.228Z,68.10
2023-05-07T13:47:24.650Z,67.52
2023-05-07T13:49:54.548Z,67.43
2023-05-07T13:52:24.576Z,67.47
2023-05-07T13:54:57.694Z,67.72
2023-05-07T13:57:27.466Z,67.62
2023-05-07T13:59:57.251Z,67.97
2023-05-07T14:02:27.058Z,66.67
2023-05-07T14:04:56.905Z,66.53
2023-05-07T14:07:26.673Z,67.67
2023-05-07T14:09:59.108Z,67.66
2023-05-07T14:12:29.009Z,67.24
2023-05-07T14:14:58.776Z,68.88
2023-05-07T14:17:28.804Z,69.07
2023-05-07T14:19:58.792Z,69.37
2023-05-07T14:22:28.569Z,67.42
2023-05-07T14:25:06.811Z,68.16
2023-05-07T14:27:37.316Z,67.71
2023-05-07T14:30:07.728Z,68.50
2023-05-07T14:32:38.131Z,68.75
2023-05-07T14:35:08.837Z,68.17
2023-05-07T14:37:38.653Z,68.72
2023-05-07T14:40:12.898Z,69.00
2023-05-07T14:42:43.846Z,69.73
2023-05-07T14:45:14.566Z,67.83
2023-05-07T14:47:44.897Z,68.03
2023-05-07T14:50:14.665Z,69.22
2023-05-07T14:52:44.470Z,69.40
2023-05-07T14:55:16.920Z,69.20
2023-05-07T14:57:46.703Z,68.19
2023-05-07T15:00:17.341Z,69.34
2023-05-07T15:02:47.357Z,69.11
2023-05-07T15:05:18.612Z,69.42
2023-05-07T15:07:48.360Z,69.10
2023-05-07T15:10:20.798Z,68.82
2023-05-07T15:12:50.861Z,68.37
2023-05-07T15:15:20.665Z,68.52
2023-05-07T15:17:51.197Z,68.52
2023-05-07T15:20:21.364Z,69.02
2023-05-07T15:22:51.155Z,68.57
2023-05-07T15:25:23.559Z,69.06
2023-05-07T15:27:53.567Z,69.90
2023-05-07T15:30:23.326Z,70.92
2023-05-07T15:32:53.129Z,70.33
2023-05-07T15:35:23.285Z,69.37
2023-05-07T15:37:53.525Z,69.49
2023-05-07T15:40:26.016Z,69.57
2023-05-07T15:42:58.565Z,68.86
2023-05-07T15:45:28.421Z,70.26
2023-05-07T15:47:58.280Z,69.78
2023-05-07T15:50:29.714Z,70.87
2023-05-07T15:52:59.477Z,71.47
2023-05-07T15:55:32.256Z,71.85
2023-05-07T15:58:02.001Z,71.54
2023-05-07T16:00:32.065Z,72.46
2023-05-07T16:03:02.019Z,72.65
2023-05-07T16:05:31.872Z,71.82
2023-05-07T16:08:01.657Z,71.60
2023-05-07T16:10:34.118Z,72.62
2023-05-07T16:13:04.138Z,72.99
2023-05-07T16:15:33.936Z,72.80
2023-05-07T16:18:03.733Z,71.72
2023-05-07T16:20:33.590Z,71.72
2023-05-07T16:23:03.852Z,72.31
2023-05-07T16:25:36.208Z,72.03
2023-05-07T16:28:06.084Z,72.08
2023-05-07T16:30:35.898Z,72.12
2023-05-07T16:33:05.779Z,72.36
2023-05-07T16:35:35.567Z,71.42
2023-05-07T16:38:10.229Z,70.72
2023-05-07T16:40:44.758Z,71.46
2023-05-07T16:43:14.617Z,71.40
2023-05-07T16:45:44.323Z,71.27
2023-05-07T16:48:14.054Z,70.88
2023-05-07T16:50:44.699Z,70.94
2023-05-07T16:53:14.996Z,71.20
2023-05-07T16:55:47.363Z,71.00
2023-05-07T16:58:17.264Z,71.46
2023-05-07T17:00:50.766Z,71.57
2023-05-07T17:03:21.580Z,70.36
2023-05-07T17:05:51.438Z,70.25
2023-05-07T17:08:21.178Z,70.60
2023-05-07T17:10:53.506Z,69.88
2023-05-07T17:13:23.351Z,69.83
2023-05-07T17:15:53.196Z,70.47
2023-05-07T17:18:22.957Z,69.60
2023-05-07T17:20:52.687Z,70.62
2023-05-07T17:23:22.660Z,71.42
2023-05-07T17:25:54.968Z,71.58
2023-05-07T17:28:24.693Z,71.69
2023-05-07T17:30:54.492Z,72.47
2023-05-07T17:33:24.307Z,72.85
2023-05-07T17:35:56.119Z,72.46
2023-05-07T17:38:26.040Z,72.30
2023-05-07T17:40:58.459Z,71.81
2023-05-07T17:43:28.244Z,71.66
2023-05-07T17:45:58.058Z,70.78
2023-05-07T17:48:28.072Z,71.13
2023-05-07T17:51:04.108Z,70.51
2023-05-07T17:53:34.024Z,70.95
2023-05-07T17:56:06.450Z,70.73
2023-05-07T17:58:46.304Z,71.16
2023-05-07T18:01:26.424Z,71.06
2023-05-07T18:03:56.259Z,70.57
2023-05-07T18:06:26.113Z,70.46
2023-05-07T18:08:57.049Z,70.65
2023-05-07T18:11:29.485Z,70.09
2023-05-07T18:13:59.243Z,70.64
2023-05-07T18:16:29.281Z,70.77
2023-05-07T18:18:59.104Z,71.04
2023-05-07T18:21:28.930Z,71.91
2023-05-07T18:23:58.727Z,72.15
2023-05-07T18:26:31.064Z,72.39
2023-05-07T18:29:00.820Z,73.35
2023-05-07T18:31:30.583Z,73.72
2023-05-07T18:34:00.329Z,73.68
2023-05-07T18:36:30.062Z,73.61
2023-05-07T18:38:59.791Z,73.69
2023-05-07T18:41:32.093Z,74.02
2023-05-07T18:44:01.850Z,74.43
2023-05-07T18:46:31.890Z,74.81
2023-05-07T18:49:01.659Z,74.80
2023-05-07T18:51:31.458Z,74.93
2023-05-07T18:54:02.283Z,75.03
2023-05-07T18:56:34.694Z,75.54
2023-05-07T18:59:04.519Z,75.92
2023-05-07T19:01:34.414Z,75.77
2023-05-07T19:04:04.382Z,75.38
2023-05-07T19:06:34.356Z,76.41
2023-05-07T19:09:04.994Z,76.20
2023-05-07T19:11:37.370Z,76.15
2023-05-07T19:14:07.581Z,76.43
2023-05-07T19:16:37.465Z,76.47
2023-05-07T19:19:07.727Z,77.10
2023-05-07T19:21:37.521Z,76.91
2023-05-07T19:24:07.727Z,76.66
2023-05-07T19:26:40.142Z,76.67
2023-05-07T19:29:17.298Z,76.39
2023-05-07T19:31:47.683Z,76.12
2023-05-07T19:34:17.667Z,76.33
2023-05-07T19:36:47.432Z,76.41
2023-05-07T19:39:18.681Z,76.25
2023-05-07T19:41:51.665Z,75.94
2023-05-07T19:44:21.442Z,75.84
2023-05-07T19:46:52.774Z,76.25
2023-05-07T19:49:25.384Z,76.01
2023-05-07T19:51:55.156Z,75.76
2023-05-07T19:54:24.929Z,75.98
2023-05-07T19:56:58.166Z,75.40
2023-05-07T19:59:28.342Z,75.87
2023-05-07T20:01:58.271Z,76.03
2023-05-07T20:04:32.564Z,76.13
2023-05-07T20:07:02.495Z,75.99
2023-05-07T20:09:32.344Z,76.08
2023-05-07T20:12:04.828Z,76.27
2023-05-07T20:14:34.866Z,76.52
2023-05-07T20:17:04.731Z,76.33
2023-05-07T20:19:34.517Z,76.07
2023-05-07T20:22:04.323Z,76.56
2023-05-07T20:24:34.109Z,75.93
2023-05-07T20:27:06.698Z,75.59
2023-05-07T20:29:36.762Z,75.57
2023-05-07T20:32:06.746Z,75.43
2023-05-07T20:34:36.579Z,76.05
2023-05-07T20:37:06.343Z,75.65
2023-05-07T20:39:36.132Z,75.71
2023-05-07T20:42:08.623Z,75.41
2023-05-07T20:44:38.522Z,75.71
2023-05-07T20:47:08.478Z,75.78
2023-05-07T20:49:38.227Z,75.61
2023-05-07T20:52:08.429Z,76.12
2023-05-07T20:54:40.464Z,75.93
2023-05-07T20:57:12.809Z,76.13
2023-05-07T20:59:42.901Z,76.63
2023-05-07T21:02:12.708Z,76.40
2023-05-07T21:04:42.582Z,76.28
2023-05-07T21:07:12.486Z,76.47
2023-05-07T21:09:42.623Z,76.89
2023-05-07T21:12:14.979Z,77.02
2023-05-07T21:14:44.758Z,76.91
2023-05-07T21:17:14.591Z,76.59
2023-05-07T21:19:44.394Z,77.21
2023-05-07T21:22:14.171Z,77.12
2023-05-07T21:24:44.099Z,77.63
2023-05-07T21:27:16.539Z,77.47
2023-05-07T21:29:46.371Z,77.94
2023-05-07T21:32:16.126Z,77.54
2023-05-07T21:34:46.759Z,77.50
2023-05-07T21:37:16.872Z,78.03
2023-05-07T21:39:46.669Z,78.05
2023-05-07T21:42:19.869Z,77.95
2023-05-07T21:44:51.105Z,77.83
2023-05-07T21:47:21.128Z,77.69
2023-05-07T21:49:50.905Z,77.60
2023-05-07T21:52:26.230Z,77.64
2023-05-07T21:54:56.147Z,78.60
2023-05-07T21:57:28.514Z,78.03
2023-05-07T21:59:58.263Z,78.08
2023-05-07T22:02:28.178Z,78.16
2023-05-07T22:04:58.060Z,78.15
2023-05-07T22:07:27.920Z,77.73
2023-05-07T22:09:57.669Z,77.84
2023-05-07T22:12:30.058Z,77.92
2023-05-07T22:14:59.894Z,78.24
2023-05-07T22:17:29.724Z,78.22
2023-05-07T22:19:59.530Z,78.24
2023-05-07T22:22:29.274Z,78.66
2023-05-07T22:24:59.016Z,78.29
2023-05-07T22:27:32.466Z,78.93
2023-05-07T22:30:02.256Z,79.01
2023-05-07T22:32:33.376Z,79.26
2023-05-07T22:35:03.554Z,79.40
2023-05-07T22:37:33.830Z,79.02
2023-05-07T22:40:03.733Z,79.11
2023-05-07T22:42:36.607Z,78.86
2023-05-07T22:45:06.830Z,79.67
2023-05-07T22:47:36.637Z,80.38
2023-05-07T22:50:07.558Z,80.37
2023-05-07T22:52:37.844Z,80.92
2023-05-07T22:55:08.675Z,81.57
2023-05-07T22:57:41.071Z,81.73
2023-05-07T23:00:12.543Z,82.09
2023-05-07T23:02:42.505Z,81.79
2023-05-07T23:05:12.405Z,80.87
2023-05-07T23:07:42.227Z,80.84
2023-05-07T23:10:12.611Z,81.53
2023-05-07T23:12:49.362Z,81.51
2023-05-07T23:15:19.655Z,82.49
2023-05-07T23:17:50.112Z,83.08
2023-05-07T23:20:20.314Z,83.70
2023-05-07T23:22:50.059Z,83.45
2023-05-07T23:25:20.110Z,83.78
2023-05-07T23:27:52.532Z,83.47
2023-05-07T23:30:22.547Z,84.07
2023-05-07T23:32:52.399Z,83.83
2023-05-07T23:35:22.483Z,84.98
2023-05-07T23:37:52.294Z,85.10
2023-05-07T23:40:22.070Z,84.54
2023-05-07T23:42:54.466Z,84.82
2023-05-07T23:45:24.309Z,85.93
2023-05-07T23:47:54.298Z,85.64
2023-05-07T23:50:24.352Z,85.05
2023-05-07T23:52:54.095Z,85.24
2023-05-07T23:55:23.856Z,85.19
2023-05-07T23:57:56.226Z,85.43
